createdAt,value
2022-10-04T00:01:06.359Z,75.77
2022-10-04T00:03:38.568Z,75.70
2022-10-04T00:06:07.880Z,74.72
2022-10-04T00:08:43.264Z,74.44
2022-10-04T00:11:17.661Z,74.86
2022-10-04T00:13:49.302Z,74.82
2022-10-04T00:16:23.608Z,75.03
2022-10-04T00:19:02.006Z,75.94
2022-10-04T00:22:00.113Z,76.14
2022-10-04T00:24:30.802Z,76.42
2022-10-04T00:27:12.666Z,75.89
2022-10-04T00:29:42.202Z,75.81
2022-10-04T00:32:30.570Z,74.96
2022-10-04T00:34:58.981Z,74.70
2022-10-04T00:37:27.397Z,74.83
2022-10-04T00:40:05.140Z,76.04
2022-10-04T00:42:45.149Z,76.32
2022-10-04T00:45:18.626Z,74.64
2022-10-04T00:48:21.262Z,74.03
2022-10-04T00:50:51.397Z,73.80
2022-10-04T00:53:32.275Z,73.66
2022-10-04T00:56:04.487Z,74.36
2022-10-04T00:58:35.973Z,74.44
2022-10-04T01:01:04.938Z,74.81
2022-10-04T01:03:35.171Z,75.29
2022-10-04T01:06:05.523Z,74.96
2022-10-04T01:08:36.193Z,74.22
2022-10-04T01:11:08.403Z,74.68
2022-10-04T01:13:39.860Z,74.79
2022-10-04T01:16:12.830Z,75.02
2022-10-04T01:18:40.641Z,75.64
2022-10-04T01:21:09.849Z,75.28
2022-10-04T01:23:43.506Z,75.73
2022-10-04T01:26:37.795Z,76.22
2022-10-04T01:29:09.168Z,75.94
2022-10-04T01:31:39.594Z,75.47
2022-10-04T01:34:08.158Z,75.12
2022-10-04T01:36:36.929Z,75.04
2022-10-04T01:39:06.638Z,75.80
2022-10-04T01:41:46.093Z,75.81
2022-10-04T01:44:20.123Z,75.45
2022-10-04T01:46:48.556Z,74.27
2022-10-04T01:49:20.121Z,74.37
2022-10-04T01:51:54.360Z,75.01
2022-10-04T01:54:31.901Z,75.01
2022-10-04T01:57:01.663Z,74.31
2022-10-04T01:59:32.525Z,74.33
2022-10-04T02:02:03.050Z,74.09
2022-10-04T02:04:33.411Z,75.05
2022-10-04T02:07:02.969Z,74.62
2022-10-04T02:09:34.094Z,73.92
2022-10-04T02:12:02.563Z,73.26
2022-10-04T02:14:36.569Z,75.06
2022-10-04T02:17:07.986Z,75.45
2022-10-04T02:19:37.477Z,74.38
2022-10-04T02:22:06.504Z,75.45
2022-10-04T02:24:38.201Z,76.03
2022-10-04T02:27:06.546Z,75.41
2022-10-04T02:29:34.668Z,74.81
2022-10-04T02:32:18.774Z,74.02
2022-10-04T02:34:47.864Z,73.31
2022-10-04T02:37:15.788Z,73.15
2022-10-04T02:39:47.035Z,73.05
2022-10-04T02:42:20.087Z,73.40
2022-10-04T02:44:52.660Z,73.32
2022-10-04T02:47:22.889Z,72.65
2022-10-04T02:49:52.617Z,73.31
2022-10-04T02:52:24.512Z,72.69
2022-10-04T02:54:57.786Z,72.67
2022-10-04T02:57:25.808Z,72.47
2022-10-04T03:00:05.192Z,73.16
2022-10-04T03:02:33.044Z,72.78
2022-10-04T03:05:05.178Z,73.44
2022-10-04T03:07:33.805Z,73.50
2022-10-04T03:10:04.408Z,73.97
2022-10-04T03:12:32.196Z,74.21
2022-10-04T03:15:00.149Z,74.40
2022-10-04T03:17:28.265Z,73.77
2022-10-04T03:19:57.150Z,73.36
2022-10-04T03:22:24.931Z,73.29
2022-10-04T03:24:54.399Z,73.49
2022-10-04T03:27:26.611Z,73.20
2022-10-04T03:29:58.884Z,73.90
2022-10-04T03:32:30.448Z,72.71
2022-10-04T03:34:59.851Z,72.46
2022-10-04T03:37:28.611Z,72.61
2022-10-04T03:39:57.122Z,72.78
2022-10-04T03:42:27.919Z,73.31
2022-10-04T03:44:57.346Z,73.79
2022-10-04T03:47:27.597Z,73.03
2022-10-04T03:49:55.987Z,72.77
2022-10-04T03:52:25.832Z,72.10
2022-10-04T03:54:55.269Z,73.05
2022-10-04T03:57:23.689Z,72.66
2022-10-04T03:59:52.910Z,71.94
2022-10-04T04:02:27.230Z,72.52
2022-10-04T04:05:01.611Z,72.90
2022-10-04T04:07:33.805Z,73.25
2022-10-04T04:10:07.004Z,73.54
2022-10-04T04:12:39.704Z,73.80
2022-10-04T04:15:11.619Z,74.18
2022-10-04T04:17:41.910Z,73.94
2022-10-04T04:20:22.863Z,73.74
2022-10-04T04:22:59.100Z,74.67
2022-10-04T04:25:28.790Z,74.65
2022-10-04T04:28:02.733Z,73.43
2022-10-04T04:30:32.888Z,73.93
2022-10-04T04:33:04.886Z,74.60
2022-10-04T04:35:33.855Z,74.19
2022-10-04T04:38:07.574Z,74.13
2022-10-04T04:40:37.721Z,74.70
2022-10-04T04:43:05.957Z,74.44
2022-10-04T04:45:35.850Z,74.18
2022-10-04T04:48:04.719Z,74.07
2022-10-04T04:50:35.633Z,73.59
2022-10-04T04:53:06.615Z,73.50
2022-10-04T04:55:50.301Z,73.20
2022-10-04T04:58:26.254Z,73.46
2022-10-04T05:00:58.793Z,73.34
2022-10-04T05:03:27.025Z,73.54
2022-10-04T05:05:57.330Z,73.79
2022-10-04T05:08:27.724Z,74.17
2022-10-04T05:11:05.874Z,74.14
2022-10-04T05:13:40.649Z,74.29
2022-10-04T05:16:13.207Z,73.31
2022-10-04T05:18:41.059Z,73.48
2022-10-04T05:21:13.124Z,73.55
2022-10-04T05:23:40.891Z,73.23
2022-10-04T05:26:12.155Z,73.63
2022-10-04T05:28:40.302Z,73.66
2022-10-04T05:31:23.867Z,73.58
2022-10-04T05:33:53.286Z,73.93
2022-10-04T05:36:49.560Z,73.87
2022-10-04T05:39:24.290Z,73.60
2022-10-04T05:41:58.158Z,73.83
2022-10-04T05:44:28.305Z,73.71
2022-10-04T05:46:58.280Z,74.04
2022-10-04T05:49:27.466Z,73.76
2022-10-04T05:51:56.756Z,73.92
2022-10-04T05:54:26.135Z,73.63
2022-10-04T05:57:16.801Z,72.68
2022-10-04T06:00:09.909Z,72.50
2022-10-04T06:03:12.533Z,72.32
2022-10-04T06:05:49.950Z,72.48
2022-10-04T06:08:25.118Z,71.74
2022-10-04T06:11:18.759Z,71.84
2022-10-04T06:14:16.618Z,72.24
2022-10-04T06:16:57.715Z,72.58
2022-10-04T06:19:41.870Z,72.54
2022-10-04T06:22:16.945Z,72.26
2022-10-04T06:24:47.300Z,72.47
2022-10-04T06:27:19.161Z,72.36
2022-10-04T06:29:49.785Z,72.63
2022-10-04T06:32:41.071Z,71.72
2022-10-04T06:35:50.414Z,71.08
2022-10-04T06:38:34.413Z,70.69
2022-10-04T06:41:14.937Z,70.13
2022-10-04T06:43:52.335Z,69.96
2022-10-04T06:46:27.458Z,69.92
2022-10-04T06:49:32.847Z,69.43
2022-10-04T06:52:24.228Z,69.76
2022-10-04T06:55:11.364Z,68.89
2022-10-04T06:58:00.164Z,68.11
2022-10-04T07:00:28.820Z,68.46
2022-10-04T07:03:01.048Z,68.26
2022-10-04T07:05:33.002Z,68.76
2022-10-04T07:08:07.585Z,68.19
2022-10-04T07:10:49.531Z,66.91
2022-10-04T07:13:33.220Z,66.64
2022-10-04T07:16:04.781Z,66.49
2022-10-04T07:18:36.596Z,65.29
2022-10-04T07:21:08.396Z,64.81
2022-10-04T07:23:39.762Z,66.49
2022-10-04T07:26:18.154Z,66.72
2022-10-04T07:29:04.092Z,66.47
2022-10-04T07:31:36.197Z,67.00
2022-10-04T07:34:11.876Z,66.04
2022-10-04T07:36:44.876Z,64.50
2022-10-04T07:39:15.402Z,64.73
2022-10-04T07:41:49.972Z,65.77
2022-10-04T07:44:24.106Z,65.54
2022-10-04T07:46:54.818Z,64.57
2022-10-04T07:49:23.582Z,63.77
2022-10-04T07:52:11.085Z,63.04
2022-10-04T07:54:42.502Z,62.48
2022-10-04T07:57:20.173Z,61.84
2022-10-04T07:59:55.542Z,62.49
2022-10-04T08:02:31.417Z,62.48
2022-10-04T08:05:07.770Z,62.72
2022-10-04T08:07:46.358Z,63.02
2022-10-04T08:10:22.564Z,62.84
2022-10-04T08:12:54.611Z,62.84
2022-10-04T08:15:37.288Z,63.08
2022-10-04T08:18:21.929Z,63.17
2022-10-04T08:20:51.762Z,62.56
2022-10-04T08:23:35.524Z,62.40
2022-10-04T08:26:23.325Z,62.57
2022-10-04T08:29:17.777Z,60.56
2022-10-04T08:32:05.069Z,60.51
2022-10-04T08:34:45.234Z,60.89
2022-10-04T08:37:18.937Z,59.56
2022-10-04T08:39:59.115Z,60.35
2022-10-04T08:42:42.646Z,58.93
2022-10-04T08:45:32.419Z,58.82
2022-10-04T08:48:24.666Z,59.92
2022-10-04T08:51:33.870Z,59.20
2022-10-04T08:54:30.048Z,59.43
2022-10-04T08:57:08.609Z,59.76
2022-10-04T09:00:13.751Z,60.05
2022-10-04T09:03:24.765Z,59.12
2022-10-04T09:06:02.265Z,58.87
2022-10-04T09:09:24.029Z,57.64
2022-10-04T09:12:20.085Z,56.74
2022-10-04T09:15:26.112Z,58.04
2022-10-04T09:17:57.114Z,58.25
2022-10-04T09:20:38.825Z,57.17
2022-10-04T09:23:16.550Z,57.86
2022-10-04T09:25:59.051Z,57.16
2022-10-04T09:29:03.898Z,56.26
2022-10-04T09:32:25.269Z,56.69
2022-10-04T09:35:13.944Z,56.58
2022-10-04T09:37:52.001Z,56.36
2022-10-04T09:40:50.948Z,57.20
2022-10-04T09:43:51.376Z,57.52
2022-10-04T09:46:31.932Z,57.55
2022-10-04T09:49:06.856Z,56.33
2022-10-04T09:52:02.364Z,55.84
2022-10-04T09:55:14.644Z,54.04
2022-10-04T09:57:54.303Z,53.48
2022-10-04T10:00:24.332Z,52.36
2022-10-04T10:03:18.995Z,52.79
2022-10-04T10:06:08.424Z,51.97
2022-10-04T10:08:44.189Z,52.29
2022-10-04T10:11:33.008Z,51.95
2022-10-04T10:14:37.517Z,52.52
2022-10-04T10:17:14.613Z,51.29
2022-10-04T10:20:03.179Z,50.61
2022-10-04T10:22:54.775Z,51.27
2022-10-04T10:25:30.642Z,49.87
2022-10-04T10:28:25.168Z,50.23
2022-10-04T10:31:08.565Z,49.13
2022-10-04T10:33:46.890Z,49.41
2022-10-04T10:36:26.079Z,47.81
2022-10-04T10:39:11.929Z,47.41
2022-10-04T10:41:52.900Z,47.84
2022-10-04T10:44:46.326Z,47.64
2022-10-04T10:47:31.564Z,47.71
2022-10-04T10:50:08.911Z,44.83
2022-10-04T10:53:12.006Z,43.50
2022-10-04T10:56:19.149Z,44.49
2022-10-04T10:59:07.708Z,43.28
2022-10-04T11:02:05.893Z,41.37
2022-10-04T11:04:44.619Z,43.13
2022-10-04T11:07:41.635Z,43.56
2022-10-04T11:10:51.813Z,43.04
2022-10-04T11:13:48.135Z,43.83
2022-10-04T11:16:40.515Z,40.73
2022-10-04T11:19:47.544Z,38.90
2022-10-04T11:22:34.774Z,36.35
2022-10-04T11:25:43.741Z,39.84
2022-10-04T11:28:17.028Z,43.65
2022-10-04T11:31:09.932Z,43.25
2022-10-04T11:33:59.199Z,43.55
2022-10-04T11:36:36.769Z,43.61
2022-10-04T11:39:25.938Z,41.74
2022-10-04T11:41:57.342Z,41.61
2022-10-04T11:44:55.235Z,43.23
2022-10-04T11:47:34.080Z,44.23
2022-10-04T11:50:16.537Z,43.38
2022-10-04T11:52:56.666Z,42.78
2022-10-04T11:55:39.331Z,43.74
2022-10-04T11:58:15.706Z,42.18
2022-10-04T12:00:57.938Z,42.61
2022-10-04T12:03:49.764Z,42.21
2022-10-04T12:06:34.923Z,42.46
2022-10-04T12:09:05.999Z,41.43
2022-10-04T12:12:14.396Z,41.63
2022-10-04T12:15:14.419Z,41.84
2022-10-04T12:17:59.005Z,41.76
2022-10-04T12:20:53.656Z,41.84
2022-10-04T12:23:49.084Z,41.35
2022-10-04T12:26:38.961Z,40.69
2022-10-04T12:29:38.527Z,39.72
2022-10-04T12:32:11.941Z,39.07
2022-10-04T12:34:48.969Z,38.19
2022-10-04T12:37:23.978Z,37.72
2022-10-04T12:40:09.677Z,38.98
2022-10-04T12:42:41.489Z,38.38
2022-10-04T12:45:29.743Z,39.79
2022-10-04T12:48:16.693Z,38.41
2022-10-04T12:50:54.163Z,40.45
2022-10-04T12:53:32.095Z,39.98
2022-10-04T12:56:21.836Z,40.18
2022-10-04T12:59:10.890Z,39.54
2022-10-04T13:01:47.336Z,39.03
2022-10-04T13:04:22.677Z,39.10
2022-10-04T13:06:59.425Z,39.67
2022-10-04T13:09:34.272Z,40.83
2022-10-04T13:12:11.951Z,40.24
2022-10-04T13:14:56.237Z,40.94
2022-10-04T13:17:36.404Z,40.16
2022-10-04T13:20:32.091Z,38.50
2022-10-04T13:23:03.510Z,38.14
2022-10-04T13:25:40.909Z,36.43
2022-10-04T13:28:23.238Z,33.85
2022-10-04T13:30:56.804Z,31.09
2022-10-04T13:33:31.472Z,32.66
2022-10-04T13:36:05.908Z,34.64
2022-10-04T13:38:49.022Z,35.86
2022-10-04T13:41:24.703Z,36.42
2022-10-04T13:44:15.248Z,36.42
2022-10-04T13:46:54.790Z,35.32
2022-10-04T13:49:31.137Z,36.88
2022-10-04T13:52:42.563Z,33.75
2022-10-04T13:55:42.007Z,34.68
2022-10-04T13:58:20.764Z,35.15
2022-10-04T14:01:02.060Z,33.87
2022-10-04T14:03:42.398Z,33.62
2022-10-04T14:06:37.071Z,32.81
2022-10-04T14:09:23.592Z,34.88
2022-10-04T14:12:19.237Z,33.00
2022-10-04T14:15:25.886Z,34.82
2022-10-04T14:18:32.423Z,30.26
2022-10-04T14:21:23.661Z,26.88
2022-10-04T14:24:41.756Z,24.48
2022-10-04T14:27:59.671Z,29.71
2022-10-04T14:30:33.605Z,29.67
2022-10-04T14:33:33.219Z,31.86
2022-10-04T14:36:29.633Z,34.69
2022-10-04T14:39:20.191Z,36.06
2022-10-04T14:42:12.238Z,35.49
2022-10-04T14:44:55.296Z,34.51
2022-10-04T14:47:36.476Z,34.76
2022-10-04T14:50:19.036Z,36.04
2022-10-04T14:52:56.881Z,36.30
2022-10-04T14:55:45.891Z,36.24
2022-10-04T14:58:17.737Z,36.40
2022-10-04T15:01:06.586Z,36.01
2022-10-04T15:03:40.593Z,36.15
2022-10-04T15:06:13.644Z,36.33
2022-10-04T15:09:22.694Z,36.38
2022-10-04T15:12:25.426Z,36.22
2022-10-04T15:14:45.217Z,36.22
2022-10-04T15:17:26.840Z,36.92
2022-10-04T15:20:03.567Z,37.27
2022-10-04T15:22:33.671Z,36.44
2022-10-04T15:25:01.478Z,37.46
2022-10-04T15:27:50.698Z,38.25
2022-10-04T15:30:22.411Z,38.66
2022-10-04T15:32:57.533Z,39.18
2022-10-04T15:35:32.767Z,39.36
2022-10-04T15:38:02.674Z,39.57
2022-10-04T15:40:37.826Z,40.04
2022-10-04T15:43:19.301Z,40.12
2022-10-04T15:46:03.573Z,40.31
2022-10-04T15:48:59.607Z,41.08
2022-10-04T15:51:51.435Z,41.34
2022-10-04T15:54:52.217Z,41.95
2022-10-04T15:57:31.229Z,42.10
2022-10-04T16:00:05.988Z,42.37
2022-10-04T16:02:48.686Z,42.91
2022-10-04T16:05:23.662Z,42.60
2022-10-04T16:08:26.895Z,43.18
2022-10-04T16:11:13.942Z,43.15
2022-10-04T16:14:10.882Z,43.17
2022-10-04T16:16:59.448Z,43.05
2022-10-04T16:19:38.668Z,43.42
2022-10-04T16:22:14.803Z,44.73
2022-10-04T16:24:46.848Z,45.05
2022-10-04T16:27:46.071Z,45.16
2022-10-04T16:30:27.060Z,45.70
2022-10-04T16:33:14.107Z,46.89
2022-10-04T16:35:44.722Z,46.58
2022-10-04T16:38:25.512Z,47.15
2022-10-04T16:41:12.693Z,47.78
2022-10-04T16:43:50.414Z,48.34
2022-10-04T16:46:27.042Z,49.06
2022-10-04T16:48:58.858Z,49.64
2022-10-04T16:51:46.580Z,49.66
2022-10-04T16:54:34.975Z,50.08
2022-10-04T16:57:19.690Z,50.16
2022-10-04T17:00:00.435Z,52.26
2022-10-04T17:02:55.427Z,53.76
2022-10-04T17:05:49.396Z,53.95
2022-10-04T17:08:23.545Z,55.74
2022-10-04T17:11:16.084Z,57.04
2022-10-04T17:13:56.388Z,58.38
2022-10-04T17:16:31.476Z,57.36
2022-10-04T17:19:19.600Z,56.77
2022-10-04T17:21:58.665Z,59.80
2022-10-04T17:24:32.450Z,58.51
2022-10-04T17:27:13.512Z,58.41
2022-10-04T17:29:56.142Z,58.15
2022-10-04T17:32:28.957Z,58.18
2022-10-04T17:35:09.934Z,59.21
2022-10-04T17:37:47.080Z,59.60
2022-10-04T17:40:28.573Z,60.38
2022-10-04T17:43:00.502Z,61.28
2022-10-04T17:46:00.760Z,61.90
2022-10-04T17:48:47.510Z,61.93
2022-10-04T17:51:51.279Z,62.51
2022-10-04T17:54:41.885Z,63.22
2022-10-04T17:57:15.887Z,64.35
2022-10-04T17:59:45.964Z,64.51
2022-10-04T18:02:20.165Z,64.97
2022-10-04T18:04:50.726Z,65.20
2022-10-04T18:07:20.472Z,64.97
2022-10-04T18:09:51.782Z,65.21
2022-10-04T18:12:27.521Z,66.25
2022-10-04T18:15:01.696Z,66.12
2022-10-04T18:17:34.102Z,66.25
2022-10-04T18:20:16.566Z,67.26
2022-10-04T18:22:48.098Z,67.71
2022-10-04T18:25:20.558Z,68.08
2022-10-04T18:27:54.206Z,68.59
2022-10-04T18:30:22.584Z,68.17
2022-10-04T18:32:52.440Z,68.97
2022-10-04T18:35:26.639Z,69.22
2022-10-04T18:37:56.399Z,70.07
2022-10-04T18:40:28.455Z,69.82
2022-10-04T18:42:58.062Z,69.69
2022-10-04T18:45:28.284Z,70.12
2022-10-04T18:47:57.684Z,70.28
2022-10-04T18:50:33.170Z,71.25
2022-10-04T18:53:15.768Z,71.53
2022-10-04T18:55:52.822Z,71.01
2022-10-04T18:58:46.430Z,69.68
2022-10-04T19:01:44.869Z,69.44
2022-10-04T19:04:18.351Z,68.45
2022-10-04T19:06:48.281Z,68.12
2022-10-04T19:09:21.411Z,67.99
2022-10-04T19:11:53.182Z,67.72
2022-10-04T19:14:27.435Z,67.66
2022-10-04T19:16:59.220Z,67.90
2022-10-04T19:19:41.702Z,67.54
2022-10-04T19:22:19.707Z,67.51
2022-10-04T19:25:12.137Z,68.01
2022-10-04T19:27:45.232Z,68.06
2022-10-04T19:30:16.562Z,68.30
2022-10-04T19:32:55.491Z,68.33
2022-10-04T19:35:31.229Z,68.12
2022-10-04T19:38:05.487Z,67.92
2022-10-04T19:40:38.950Z,68.10
2022-10-04T19:43:10.405Z,68.00
2022-10-04T19:45:43.429Z,68.67
2022-10-04T19:48:23.377Z,69.03
2022-10-04T19:50:55.449Z,68.60
2022-10-04T19:53:25.624Z,69.06
2022-10-04T19:55:56.625Z,69.26
2022-10-04T19:58:37.770Z,69.19
2022-10-04T20:01:11.615Z,69.44
2022-10-04T20:03:39.542Z,69.31
2022-10-04T20:06:07.896Z,69.28
2022-10-04T20:08:56.735Z,69.54
2022-10-04T20:11:30.332Z,69.87
2022-10-04T20:14:40.011Z,69.82
2022-10-04T20:17:09.174Z,69.76
2022-10-04T20:19:41.428Z,70.00
2022-10-04T20:22:30.137Z,69.97
2022-10-04T20:24:59.236Z,70.03
2022-10-04T20:28:02.125Z,69.70
2022-10-04T20:30:52.350Z,69.34
2022-10-04T20:33:46.653Z,69.60
2022-10-04T20:36:50.862Z,69.67
2022-10-04T20:40:01.595Z,69.93
2022-10-04T20:42:34.672Z,70.25
2022-10-04T20:45:06.064Z,70.05
2022-10-04T20:47:43.002Z,70.19
2022-10-04T20:50:26.558Z,70.36
2022-10-04T20:52:57.072Z,70.43
2022-10-04T20:55:28.095Z,70.14
2022-10-04T20:57:57.203Z,69.87
2022-10-04T21:00:26.965Z,69.67
2022-10-04T21:03:13.859Z,69.78
2022-10-04T21:05:43.061Z,69.63
2022-10-04T21:08:25.482Z,69.24
2022-10-04T21:11:20.395Z,69.81
2022-10-04T21:13:59.116Z,69.97
2022-10-04T21:16:58.609Z,70.21
2022-10-04T21:19:45.068Z,69.87
2022-10-04T21:22:35.413Z,69.79
2022-10-04T21:25:05.073Z,70.02
2022-10-04T21:27:33.971Z,69.89
2022-10-04T21:30:02.479Z,70.11
2022-10-04T21:32:34.934Z,70.33
2022-10-04T21:35:03.594Z,69.84
2022-10-04T21:37:31.394Z,70.79
2022-10-04T21:40:00.648Z,70.45
2022-10-04T21:42:28.578Z,70.47
2022-10-04T21:44:56.362Z,70.53
2022-10-04T21:47:24.136Z,70.49
2022-10-04T21:49:52.454Z,70.53
2022-10-04T21:52:20.330Z,69.11
2022-10-04T21:54:48.179Z,69.07
2022-10-04T21:57:17.286Z,69.06
2022-10-04T21:59:45.057Z,69.10
2022-10-04T22:02:12.855Z,69.38
2022-10-04T22:04:41.852Z,70.45
2022-10-04T22:07:10.562Z,69.65
2022-10-04T22:09:38.432Z,69.66
2022-10-04T22:12:06.281Z,69.97
2022-10-04T22:14:35.631Z,70.60
2022-10-04T22:17:03.967Z,70.55
2022-10-04T22:19:31.855Z,70.68
2022-10-04T22:21:59.605Z,70.39
2022-10-04T22:24:27.342Z,71.08
2022-10-04T22:26:55.141Z,72.08
2022-10-04T22:29:23.253Z,71.61
2022-10-04T22:31:53.165Z,70.92
2022-10-04T22:34:22.800Z,71.78
2022-10-04T22:36:53.077Z,71.67
2022-10-04T22:39:21.322Z,71.25
2022-10-04T22:41:50.078Z,72.52
2022-10-04T22:44:20.888Z,72.41
2022-10-04T22:46:52.212Z,71.87
2022-10-04T22:49:23.893Z,72.59
2022-10-04T22:51:52.831Z,73.15
2022-10-04T22:54:22.283Z,72.86
2022-10-04T22:56:50.535Z,72.17
2022-10-04T22:59:20.462Z,71.69
2022-10-04T23:01:48.814Z,72.04
2022-10-04T23:04:22.296Z,72.34
2022-10-04T23:06:50.809Z,72.27
2022-10-04T23:09:18.993Z,70.76
2022-10-04T23:11:46.905Z,70.64
2022-10-04T23:14:14.659Z,72.04
2022-10-04T23:16:42.949Z,72.29
2022-10-04T23:19:12.833Z,71.47
2022-10-04T23:21:44.775Z,71.39
2022-10-04T23:24:16.506Z,70.78
2022-10-04T23:26:47.924Z,71.00
2022-10-04T23:29:19.295Z,71.46
2022-10-04T23:31:49.553Z,71.07
2022-10-04T23:34:20.182Z,72.00
2022-10-04T23:36:49.753Z,71.51
2022-10-04T23:39:24.065Z,71.69
2022-10-04T23:41:52.426Z,71.71
2022-10-04T23:44:20.158Z,71.63
2022-10-04T23:46:48.316Z,71.95
2022-10-04T23:49:16.911Z,72.50
2022-10-04T23:51:45.554Z,73.40
2022-10-04T23:54:17.096Z,72.80
2022-10-04T23:56:45.732Z,72.59
2022-10-04T23:59:17.291Z,72.15
